Terminal Aerodrome Forecast
Issued by NWS

Home | Current Version | Previous Version | Text Only | Print | Product List | Glossary On
Versions: 1 2 3 4 5 6 7 8 9 10 11 12 13 14 15 16 17
000
FTUS43 KICT 020520
TAFHUT
TAF
KHUT 020520Z 0206/0306 16006KT P6SM BKN250
     FM021500 21012KT P6SM SCT250
     FM022200 22008KT P6SM SCT060
     FM030200 18007KT P6SM BKN250=

USA.gov is the U.S. government's official web portal to all federal, state and local government web resources and services.